createdAt,value
2019-05-30T00:01:36.830Z,88.50
2019-05-30T00:04:07.751Z,88.80
2019-05-30T00:06:38.655Z,88.90
2019-05-30T00:09:10.168Z,88.90
2019-05-30T00:11:40.673Z,89.00
2019-05-30T00:14:10.594Z,89.10
2019-05-30T00:16:41.022Z,89.50
2019-05-30T00:19:10.975Z,90.00
2019-05-30T00:21:40.893Z,89.70
2019-05-30T00:24:10.842Z,89.80
2019-05-30T00:26:40.802Z,89.90
2019-05-30T00:29:10.769Z,89.90
2019-05-30T00:31:40.816Z,90.00
2019-05-30T00:34:10.892Z,90.00
2019-05-30T00:36:40.776Z,90.10
2019-05-30T00:39:10.641Z,90.10
2019-05-30T00:41:40.558Z,90.20
2019-05-30T00:44:10.499Z,90.20
2019-05-30T00:46:40.407Z,90.20
2019-05-30T00:49:10.281Z,90.20
2019-05-30T00:51:40.116Z,90.10
2019-05-30T00:54:10.059Z,90.20
2019-05-30T00:56:40.050Z,90.40
2019-05-30T00:59:09.908Z,90.40
2019-05-30T01:01:39.756Z,90.30
2019-05-30T01:04:09.695Z,90.70
2019-05-30T01:06:39.631Z,90.50
2019-05-30T01:09:09.496Z,90.70
2019-05-30T01:11:39.508Z,90.70
2019-05-30T01:14:09.354Z,90.70
2019-05-30T01:16:42.536Z,90.60
2019-05-30T01:19:11.008Z,90.80
2019-05-30T01:21:41.556Z,90.70
2019-05-30T01:24:11.466Z,90.80
2019-05-30T01:26:41.439Z,90.90
2019-05-30T01:29:11.382Z,91.00
2019-05-30T01:31:41.334Z,91.20
2019-05-30T01:34:11.188Z,91.30
2019-05-30T01:36:41.082Z,91.30
2019-05-30T01:39:11.012Z,91.40
2019-05-30T01:41:41.011Z,91.40
2019-05-30T01:44:10.870Z,91.40
2019-05-30T01:46:40.819Z,91.40
2019-05-30T01:49:10.735Z,91.50
2019-05-30T01:51:40.667Z,91.50
2019-05-30T01:54:10.529Z,91.60
2019-05-30T01:56:40.443Z,91.60
2019-05-30T01:59:10.330Z,91.70
2019-05-30T02:01:40.256Z,91.60
2019-05-30T02:04:10.138Z,91.60
2019-05-30T02:06:39.988Z,91.60
2019-05-30T02:09:11.891Z,91.70
2019-05-30T02:11:41.519Z,91.70
2019-05-30T02:14:11.467Z,91.60
2019-05-30T02:16:41.608Z,91.70
2019-05-30T02:19:11.690Z,91.80
2019-05-30T02:21:41.630Z,91.90
2019-05-30T02:24:12.311Z,91.90
2019-05-30T02:26:42.421Z,91.90
2019-05-30T02:29:12.350Z,91.80
2019-05-30T02:31:42.292Z,91.90
2019-05-30T02:34:12.466Z,92.00
2019-05-30T02:36:43.467Z,92.10
2019-05-30T02:39:13.409Z,91.90
2019-05-30T02:41:43.331Z,91.50
2019-05-30T02:44:13.415Z,91.10
2019-05-30T02:46:43.273Z,91.10
2019-05-30T02:49:13.727Z,90.80
2019-05-30T02:51:44.081Z,91.10
2019-05-30T02:54:14.503Z,91.10
2019-05-30T02:56:44.450Z,91.10
2019-05-30T02:59:14.440Z,91.10
2019-05-30T03:01:59.968Z,91.10
2019-05-30T03:04:16.051Z,91.10
2019-05-30T03:06:46.080Z,91.20
2019-05-30T03:09:16.491Z,91.70
2019-05-30T03:11:46.919Z,91.50
2019-05-30T03:14:19.732Z,91.50
2019-05-30T03:16:48.580Z,91.30
2019-05-30T03:19:19.358Z,91.60
2019-05-30T03:21:49.469Z,91.10
2019-05-30T03:24:19.410Z,91.40
2019-05-30T03:26:49.439Z,91.30
2019-05-30T03:29:19.523Z,91.40
2019-05-30T03:31:50.618Z,91.40
2019-05-30T03:34:27.413Z,91.50
2019-05-30T03:36:52.244Z,91.40
2019-05-30T03:39:22.324Z,91.60
2019-05-30T03:41:52.391Z,91.50
2019-05-30T03:44:22.348Z,91.60
2019-05-30T03:46:55.327Z,91.30
2019-05-30T03:49:28.673Z,91.20
2019-05-30T03:52:01.016Z,91.20
2019-05-30T03:54:31.904Z,91.00
2019-05-30T03:57:09.052Z,90.70
2019-05-30T03:59:50.862Z,90.20
2019-05-30T04:02:26.607Z,89.40
2019-05-30T04:04:59.609Z,87.10
2019-05-30T04:07:32.191Z,85.00
2019-05-30T04:10:03.849Z,81.40
2019-05-30T04:12:53.349Z,78.10
2019-05-30T04:15:35.968Z,72.90
2019-05-30T04:18:06.961Z,67.00
2019-05-30T04:20:37.186Z,63.20
2019-05-30T04:23:08.518Z,59.30
2019-05-30T04:25:38.659Z,56.90
2019-05-30T04:28:09.749Z,54.80
2019-05-30T04:30:39.753Z,53.10
2019-05-30T04:33:19.508Z,52.80
2019-05-30T04:35:41.299Z,51.30
2019-05-30T04:38:12.707Z,49.80
2019-05-30T04:40:43.953Z,50.10
2019-05-30T04:43:15.323Z,48.80
2019-05-30T04:45:45.608Z,49.20
2019-05-30T04:48:16.005Z,47.30
2019-05-30T04:50:46.191Z,45.60
2019-05-30T04:53:16.421Z,44.40
2019-05-30T04:55:46.905Z,44.80
2019-05-30T04:58:17.909Z,45.80
2019-05-30T05:00:48.679Z,45.00
2019-05-30T05:03:40.582Z,42.60
2019-05-30T05:05:50.178Z,39.90
2019-05-30T05:08:20.186Z,38.80
2019-05-30T05:10:50.106Z,37.30
2019-05-30T05:13:20.428Z,36.50
2019-05-30T05:15:50.574Z,35.20
2019-05-30T05:18:21.112Z,36.40
2019-05-30T05:20:51.310Z,39.00
2019-05-30T05:23:21.373Z,40.10
2019-05-30T05:26:00.323Z,40.80
2019-05-30T05:28:24.017Z,39.80
2019-05-30T05:30:54.071Z,41.60
2019-05-30T05:33:24.755Z,41.90
2019-05-30T05:35:54.781Z,41.60
2019-05-30T05:38:24.704Z,39.50
2019-05-30T05:40:54.581Z,40.40
2019-05-30T05:43:24.567Z,39.80
2019-05-30T05:45:54.455Z,39.10
2019-05-30T05:48:24.733Z,37.60
2019-05-30T05:50:54.994Z,36.30
2019-05-30T05:53:25.196Z,36.20
2019-05-30T05:55:56.327Z,37.70
2019-05-30T05:58:26.574Z,36.60
2019-05-30T06:00:56.580Z,38.20
2019-05-30T06:03:28.309Z,39.30
2019-05-30T06:05:59.513Z,41.30
2019-05-30T06:08:30.000Z,43.50
2019-05-30T06:11:00.146Z,44.70
2019-05-30T06:13:30.265Z,44.50
2019-05-30T06:16:00.204Z,45.40
2019-05-30T06:18:30.419Z,47.30
2019-05-30T06:21:00.618Z,47.50
2019-05-30T06:23:30.677Z,48.70
2019-05-30T06:26:00.593Z,49.00
2019-05-30T06:28:30.464Z,50.50
2019-05-30T06:31:00.412Z,52.10
2019-05-30T06:33:30.332Z,53.00
2019-05-30T06:36:02.237Z,52.60
2019-05-30T06:38:32.297Z,53.40
2019-05-30T06:41:02.328Z,53.60
2019-05-30T06:43:32.443Z,53.50
2019-05-30T06:46:02.286Z,53.00
2019-05-30T06:48:32.232Z,52.40
2019-05-30T06:51:02.660Z,52.30
2019-05-30T06:53:32.585Z,52.60
2019-05-30T06:56:02.463Z,51.80
2019-05-30T06:58:46.430Z,51.80
2019-05-30T07:01:04.206Z,50.30
2019-05-30T07:03:34.849Z,51.00
2019-05-30T07:06:05.676Z,50.90
2019-05-30T07:08:36.001Z,52.80
2019-05-30T07:11:06.008Z,50.90
2019-05-30T07:13:36.433Z,50.60
2019-05-30T07:16:06.609Z,51.30
2019-05-30T07:18:37.014Z,53.40
2019-05-30T07:21:07.206Z,51.60
2019-05-30T07:23:39.662Z,51.40
2019-05-30T07:26:08.846Z,48.60
2019-05-30T07:28:38.731Z,49.00
2019-05-30T07:31:08.797Z,53.40
2019-05-30T07:33:38.828Z,48.00
2019-05-30T07:36:08.807Z,45.70
2019-05-30T07:38:38.681Z,46.20
2019-05-30T07:41:08.652Z,51.00
2019-05-30T07:43:38.577Z,44.40
2019-05-30T07:46:08.510Z,43.50
2019-05-30T07:48:38.664Z,45.00
2019-05-30T07:51:08.697Z,46.80
2019-05-30T07:53:39.181Z,46.00
2019-05-30T07:56:09.303Z,43.20
2019-05-30T07:58:39.262Z,46.70
2019-05-30T08:01:11.751Z,46.60
2019-05-30T08:03:42.295Z,43.20
2019-05-30T08:06:12.887Z,42.40
2019-05-30T08:08:43.004Z,47.00
2019-05-30T08:11:12.945Z,43.40
2019-05-30T08:13:44.324Z,41.10
2019-05-30T08:16:14.273Z,42.50
2019-05-30T08:18:44.821Z,41.40
2019-05-30T08:21:17.704Z,41.20
2019-05-30T08:23:47.882Z,42.10
2019-05-30T08:26:28.092Z,42.90
2019-05-30T08:28:58.338Z,44.10
2019-05-30T08:31:28.744Z,44.60
2019-05-30T08:34:01.667Z,43.80
2019-05-30T08:36:32.959Z,44.60
2019-05-30T08:39:04.693Z,43.80
2019-05-30T08:41:35.704Z,42.30
2019-05-30T08:44:06.339Z,41.90
2019-05-30T08:46:37.855Z,43.50
2019-05-30T08:49:11.158Z,42.10
2019-05-30T08:51:42.400Z,40.00
2019-05-30T08:54:14.590Z,39.60
2019-05-30T08:56:47.221Z,41.30
2019-05-30T08:59:17.888Z,38.30
2019-05-30T09:01:52.851Z,43.00
2019-05-30T09:04:21.005Z,40.60
2019-05-30T09:06:52.480Z,43.10
2019-05-30T09:09:22.582Z,40.00
2019-05-30T09:11:52.491Z,42.90
2019-05-30T09:14:22.364Z,40.10
2019-05-30T09:16:52.979Z,41.50
2019-05-30T09:19:23.103Z,40.30
2019-05-30T09:21:53.010Z,37.50
2019-05-30T09:24:23.561Z,36.90
2019-05-30T09:26:53.897Z,39.00
2019-05-30T09:29:23.828Z,34.60
2019-05-30T09:31:53.754Z,35.50
2019-05-30T09:34:23.608Z,35.70
2019-05-30T09:36:54.486Z,35.10
2019-05-30T09:39:24.527Z,36.30
2019-05-30T09:41:54.538Z,37.10
2019-05-30T09:44:24.621Z,36.10
2019-05-30T09:46:54.551Z,37.90
2019-05-30T09:49:24.564Z,34.60
2019-05-30T09:51:54.487Z,33.60
2019-05-30T09:54:24.462Z,36.40
2019-05-30T09:56:57.225Z,37.20
2019-05-30T09:59:26.437Z,37.40
2019-05-30T10:01:56.362Z,36.00
2019-05-30T10:04:26.283Z,35.00
2019-05-30T10:06:56.204Z,32.60
2019-05-30T10:09:26.175Z,35.00
2019-05-30T10:11:56.110Z,33.70
2019-05-30T10:14:25.983Z,34.00
2019-05-30T10:16:56.838Z,34.50
2019-05-30T10:19:27.464Z,33.40
2019-05-30T10:21:57.353Z,30.60
2019-05-30T10:24:27.380Z,33.10
2019-05-30T10:26:58.360Z,31.00
2019-05-30T10:29:28.304Z,29.70
2019-05-30T10:31:58.190Z,33.20
2019-05-30T10:34:28.120Z,29.80
2019-05-30T10:36:57.983Z,31.30
2019-05-30T10:39:27.934Z,29.60
2019-05-30T10:41:57.892Z,28.80
2019-05-30T10:44:27.869Z,31.20
2019-05-30T10:46:58.044Z,28.40
2019-05-30T10:49:34.831Z,30.10
2019-05-30T10:51:59.837Z,30.70
2019-05-30T10:54:29.922Z,30.20
2019-05-30T10:57:00.934Z,30.70
2019-05-30T10:59:30.926Z,28.00
2019-05-30T11:02:00.831Z,29.90
2019-05-30T11:04:30.729Z,29.30
2019-05-30T11:07:12.757Z,28.80
2019-05-30T11:09:48.747Z,25.10
2019-05-30T11:12:19.683Z,26.20
2019-05-30T11:14:50.242Z,26.50
2019-05-30T11:17:21.255Z,26.20
2019-05-30T11:19:51.777Z,24.70
2019-05-30T11:22:23.199Z,23.20
2019-05-30T11:24:54.378Z,22.20
2019-05-30T11:27:24.449Z,22.10
2019-05-30T11:29:54.797Z,22.50
2019-05-30T11:32:24.753Z,20.90
2019-05-30T11:34:55.437Z,22.40
2019-05-30T11:37:25.382Z,22.10
2019-05-30T11:39:55.355Z,21.50
2019-05-30T11:42:25.407Z,21.50
2019-05-30T11:44:59.956Z,20.50
2019-05-30T11:47:30.726Z,21.70
2019-05-30T11:50:00.627Z,20.80
2019-05-30T11:52:30.548Z,21.50
2019-05-30T11:55:00.438Z,20.90
2019-05-30T11:57:30.800Z,19.60
2019-05-30T12:00:00.674Z,20.20
2019-05-30T12:02:30.654Z,21.80
2019-05-30T12:05:00.864Z,23.20
2019-05-30T12:07:36.456Z,24.60
2019-05-30T12:10:02.533Z,24.10
2019-05-30T12:12:32.463Z,23.10
2019-05-30T12:15:02.848Z,22.50
2019-05-30T12:17:32.884Z,24.80
2019-05-30T12:20:02.903Z,26.00
2019-05-30T12:22:32.833Z,27.40
2019-05-30T12:25:02.844Z,28.30
2019-05-30T12:27:34.182Z,28.30
2019-05-30T12:30:06.941Z,28.10
2019-05-30T12:32:36.888Z,25.10
2019-05-30T12:35:08.244Z,24.10
2019-05-30T12:37:53.636Z,24.60
2019-05-30T12:40:11.697Z,22.80
2019-05-30T12:42:41.632Z,23.30
2019-05-30T12:45:12.232Z,24.10
2019-05-30T12:47:42.149Z,22.10
2019-05-30T12:50:12.738Z,22.20
2019-05-30T12:52:42.649Z,23.40
2019-05-30T12:55:12.933Z,23.80
2019-05-30T12:57:42.851Z,24.10
2019-05-30T13:00:19.312Z,25.60
2019-05-30T13:02:49.263Z,26.60
2019-05-30T13:05:19.363Z,25.90
2019-05-30T13:07:49.454Z,25.20
2019-05-30T13:10:19.819Z,27.00
2019-05-30T13:12:49.681Z,27.70
2019-05-30T13:15:19.871Z,29.20
2019-05-30T13:17:49.817Z,30.00
2019-05-30T13:20:20.182Z,28.80
2019-05-30T13:22:50.128Z,30.10
2019-05-30T13:25:21.961Z,29.20
2019-05-30T13:27:52.167Z,27.20
2019-05-30T13:30:22.645Z,27.00
2019-05-30T13:32:52.591Z,27.70
2019-05-30T13:35:22.555Z,27.70
2019-05-30T13:37:52.534Z,27.90
2019-05-30T13:40:25.455Z,29.20
2019-05-30T13:42:54.520Z,30.10
2019-05-30T13:45:24.498Z,31.60
2019-05-30T13:47:54.432Z,31.60
2019-05-30T13:50:24.557Z,32.20
2019-05-30T13:52:54.496Z,31.80
2019-05-30T13:55:27.445Z,33.70
2019-05-30T13:57:56.060Z,32.40
2019-05-30T14:00:26.957Z,32.60
2019-05-30T14:02:56.957Z,32.50
2019-05-30T14:05:26.972Z,33.10
2019-05-30T14:07:56.971Z,33.10
2019-05-30T14:10:27.006Z,32.50
2019-05-30T14:12:56.950Z,33.80
2019-05-30T14:15:26.887Z,33.60
2019-05-30T14:17:58.634Z,33.50
2019-05-30T14:20:28.811Z,33.40
2019-05-30T14:22:58.762Z,32.70
2019-05-30T14:25:28.717Z,32.50
2019-05-30T14:27:58.652Z,33.90
2019-05-30T14:30:28.656Z,33.90
2019-05-30T14:32:58.710Z,34.10
2019-05-30T14:35:28.705Z,33.90
2019-05-30T14:37:58.698Z,33.60
2019-05-30T14:40:28.786Z,33.30
2019-05-30T14:42:58.678Z,32.60
2019-05-30T14:45:29.396Z,32.40
2019-05-30T14:47:59.269Z,31.60
2019-05-30T14:50:29.286Z,32.10
2019-05-30T14:52:59.224Z,33.00
2019-05-30T14:55:29.085Z,34.00
2019-05-30T14:58:00.103Z,34.00
2019-05-30T15:00:31.459Z,34.00
2019-05-30T15:03:01.387Z,34.00
2019-05-30T15:05:31.293Z,34.30
2019-05-30T15:08:01.472Z,34.00
2019-05-30T15:10:31.493Z,33.70
2019-05-30T15:13:01.904Z,33.70
2019-05-30T15:15:31.828Z,34.00
2019-05-30T15:18:01.691Z,34.50
2019-05-30T15:20:31.916Z,34.40
2019-05-30T15:23:01.829Z,34.30
2019-05-30T15:25:31.765Z,34.30
2019-05-30T15:28:01.785Z,34.90
2019-05-30T15:30:31.688Z,36.00
2019-05-30T15:33:01.641Z,35.30
2019-05-30T15:35:31.652Z,34.60
2019-05-30T15:38:01.487Z,33.70
2019-05-30T15:40:31.429Z,33.30
2019-05-30T15:43:01.448Z,33.20
2019-05-30T15:45:31.504Z,33.50
2019-05-30T15:48:01.450Z,33.90
2019-05-30T15:50:31.370Z,34.30
2019-05-30T15:53:01.237Z,34.20
2019-05-30T15:55:31.241Z,34.10
2019-05-30T15:58:01.174Z,33.70
2019-05-30T16:00:31.473Z,33.70
2019-05-30T16:03:01.479Z,33.30
2019-05-30T16:05:32.315Z,33.50
2019-05-30T16:08:02.251Z,33.30
2019-05-30T16:10:32.193Z,33.10
2019-05-30T16:13:02.031Z,32.30
2019-05-30T16:15:31.913Z,33.00
2019-05-30T16:18:04.695Z,32.90
2019-05-30T16:20:34.636Z,33.70
2019-05-30T16:23:04.501Z,34.10
2019-05-30T16:25:34.375Z,33.80
2019-05-30T16:28:04.381Z,33.90
2019-05-30T16:30:34.458Z,34.10
2019-05-30T16:33:04.447Z,34.30
2019-05-30T16:35:34.334Z,34.50
2019-05-30T16:38:04.396Z,34.60
2019-05-30T16:40:34.395Z,34.60
2019-05-30T16:43:04.318Z,35.70
2019-05-30T16:45:34.251Z,35.50
2019-05-30T16:48:04.375Z,35.80
2019-05-30T16:50:34.327Z,36.40
2019-05-30T16:53:04.251Z,36.50
2019-05-30T16:55:34.181Z,36.70
2019-05-30T16:58:04.441Z,37.00
2019-05-30T17:00:34.510Z,37.10
2019-05-30T17:03:05.392Z,36.90
2019-05-30T17:05:35.283Z,37.00
2019-05-30T17:08:05.297Z,36.60
2019-05-30T17:10:35.171Z,36.50
2019-05-30T17:13:05.191Z,36.40
2019-05-30T17:15:35.123Z,36.00
2019-05-30T17:18:05.438Z,36.50
2019-05-30T17:20:35.278Z,36.10
2019-05-30T17:23:05.558Z,35.90
2019-05-30T17:25:35.499Z,36.10
2019-05-30T17:28:06.484Z,37.00
2019-05-30T17:30:36.403Z,37.40
2019-05-30T17:33:06.274Z,38.00
2019-05-30T17:35:36.229Z,38.60
2019-05-30T17:38:06.228Z,39.30
2019-05-30T17:40:44.629Z,40.00
2019-05-30T17:43:07.800Z,40.50
2019-05-30T17:45:37.671Z,41.00
2019-05-30T17:48:16.498Z,41.40
2019-05-30T17:50:40.227Z,41.80
2019-05-30T17:53:10.165Z,42.00
2019-05-30T17:55:40.175Z,42.60
2019-05-30T17:58:10.502Z,42.70
2019-05-30T18:00:40.811Z,42.80
2019-05-30T18:03:14.902Z,42.90
2019-05-30T18:05:45.966Z,43.30
2019-05-30T18:08:18.279Z,43.20
2019-05-30T18:10:53.911Z,43.50
2019-05-30T18:13:21.255Z,43.70
2019-05-30T18:15:51.627Z,44.00
2019-05-30T18:18:23.118Z,44.10
2019-05-30T18:20:54.196Z,44.30
2019-05-30T18:23:24.052Z,44.70
2019-05-30T18:25:54.076Z,45.10
2019-05-30T18:28:23.977Z,45.30
2019-05-30T18:30:53.901Z,45.60
2019-05-30T18:33:24.079Z,45.90
2019-05-30T18:35:54.071Z,46.20
2019-05-30T18:38:24.271Z,46.20
2019-05-30T18:41:09.894Z,46.30
2019-05-30T18:43:26.758Z,46.50
2019-05-30T18:45:56.796Z,46.60
2019-05-30T18:48:27.283Z,46.70
2019-05-30T18:50:57.325Z,47.00
2019-05-30T18:53:28.304Z,47.00
2019-05-30T18:55:58.361Z,47.50
2019-05-30T18:58:28.925Z,47.30
2019-05-30T19:00:58.932Z,47.50
2019-05-30T19:03:28.884Z,47.60
2019-05-30T19:05:58.729Z,47.80
2019-05-30T19:08:29.807Z,48.10
2019-05-30T19:10:59.941Z,48.10
2019-05-30T19:13:30.992Z,48.30
2019-05-30T19:16:01.011Z,48.40
2019-05-30T19:18:31.617Z,48.50
2019-05-30T19:21:01.749Z,48.70
2019-05-30T19:23:32.027Z,48.70
2019-05-30T19:26:02.002Z,49.00
2019-05-30T19:28:32.512Z,48.80
2019-05-30T19:31:02.535Z,49.00
2019-05-30T19:33:32.929Z,49.20
2019-05-30T19:36:04.054Z,49.30
2019-05-30T19:38:33.990Z,49.40
2019-05-30T19:41:04.980Z,49.30
2019-05-30T19:43:35.904Z,49.30
2019-05-30T19:46:05.979Z,49.40
2019-05-30T19:48:36.516Z,49.60
2019-05-30T19:51:06.484Z,49.70
2019-05-30T19:53:37.023Z,49.80
2019-05-30T19:56:07.113Z,50.00
2019-05-30T19:58:37.716Z,50.00
2019-05-30T20:01:09.760Z,50.00
2019-05-30T20:03:46.632Z,50.20
2019-05-30T20:06:13.399Z,50.20
2019-05-30T20:08:55.141Z,50.30
2019-05-30T20:11:17.736Z,50.70
2019-05-30T20:13:49.915Z,50.60
2019-05-30T20:16:20.384Z,50.70
2019-05-30T20:18:52.630Z,50.90
2019-05-30T20:21:23.749Z,51.10
2019-05-30T20:23:59.072Z,51.10
2019-05-30T20:26:28.681Z,51.20
2019-05-30T20:29:00.501Z,51.30
2019-05-30T20:31:33.282Z,51.70
2019-05-30T20:34:06.576Z,51.70
2019-05-30T20:36:38.462Z,51.60
2019-05-30T20:39:08.630Z,51.70
2019-05-30T20:41:38.894Z,51.50
2019-05-30T20:44:09.280Z,51.60
2019-05-30T20:46:39.301Z,51.80
2019-05-30T20:49:10.975Z,52.30
2019-05-30T20:51:41.312Z,52.10
2019-05-30T20:54:13.240Z,52.10
2019-05-30T20:56:44.126Z,52.30
2019-05-30T20:59:17.989Z,52.60
2019-05-30T21:01:48.497Z,52.60
2019-05-30T21:04:21.503Z,52.70
2019-05-30T21:06:53.769Z,52.90
2019-05-30T21:09:29.150Z,52.90
2019-05-30T21:11:59.363Z,53.10
2019-05-30T21:14:32.527Z,53.20
2019-05-30T21:17:04.800Z,53.50
2019-05-30T21:19:35.973Z,53.40
2019-05-30T21:22:05.893Z,53.60
2019-05-30T21:24:36.395Z,53.50
2019-05-30T21:27:06.602Z,54.40
2019-05-30T21:29:36.772Z,53.90
2019-05-30T21:32:06.832Z,54.00
2019-05-30T21:34:37.700Z,54.20
2019-05-30T21:37:07.768Z,54.10
2019-05-30T21:39:37.922Z,54.10
2019-05-30T21:42:07.980Z,54.10
2019-05-30T21:44:38.427Z,54.20
2019-05-30T21:47:08.398Z,54.40
2019-05-30T21:49:38.880Z,54.60
2019-05-30T21:52:09.009Z,54.50
2019-05-30T21:54:39.783Z,54.40
2019-05-30T21:57:09.763Z,54.40
2019-05-30T21:59:40.210Z,54.90
2019-05-30T22:02:10.395Z,54.50
2019-05-30T22:04:40.502Z,54.50
2019-05-30T22:07:10.452Z,54.80
2019-05-30T22:09:41.172Z,54.90
2019-05-30T22:12:11.181Z,55.00
2019-05-30T22:14:41.731Z,55.20
2019-05-30T22:17:11.687Z,55.20
2019-05-30T22:19:41.748Z,55.20
2019-05-30T22:22:11.739Z,55.30
2019-05-30T22:24:42.188Z,55.40
2019-05-30T22:27:12.224Z,55.40
2019-05-30T22:29:42.285Z,55.70
2019-05-30T22:32:12.285Z,55.70
2019-05-30T22:34:42.683Z,55.90
2019-05-30T22:37:12.776Z,55.90
2019-05-30T22:39:42.796Z,56.40
2019-05-30T22:42:12.757Z,56.80
2019-05-30T22:44:43.932Z,56.90
2019-05-30T22:47:13.936Z,57.00
2019-05-30T22:49:44.654Z,57.20
2019-05-30T22:52:14.764Z,57.30
2019-05-30T22:54:45.186Z,57.60
2019-05-30T22:57:15.256Z,57.50
2019-05-30T22:59:45.331Z,57.70
2019-05-30T23:02:15.355Z,58.20
2019-05-30T23:04:45.986Z,57.90
2019-05-30T23:07:16.955Z,58.20
2019-05-30T23:09:47.752Z,58.00
2019-05-30T23:12:19.721Z,58.60
2019-05-30T23:14:50.071Z,58.50
2019-05-30T23:17:20.092Z,58.90
2019-05-30T23:19:51.433Z,59.00
2019-05-30T23:22:21.671Z,58.60
2019-05-30T23:24:52.312Z,59.30
2019-05-30T23:27:23.163Z,59.30
2019-05-30T23:29:53.946Z,59.50
2019-05-30T23:32:24.021Z,59.50
2019-05-30T23:34:54.572Z,59.80
2019-05-30T23:37:24.537Z,59.50
2019-05-30T23:39:55.373Z,59.90
2019-05-30T23:42:25.393Z,60.20
2019-05-30T23:44:55.464Z,60.00
2019-05-30T23:47:25.530Z,59.90
2019-05-30T23:49:55.968Z,60.70
2019-05-30T23:52:26.087Z,60.00
2019-05-30T23:54:56.305Z,60.00
2019-05-30T23:57:26.269Z,60.20
2019-05-30T23:59:56.855Z,60.50
